sensor_id;sensor_type;location;lat;lon;timestamp;P1;durP1;ratioP1;P2;durP2;ratioP2
16430;SDS011;8325;49.284;7.238;2024-01-06T05:04:15;6.28;;;2.97;;
16430;SDS011;8325;49.284;7.238;2024-01-06T05:08:27;6.13;;;3.53;;
16430;SDS011;8325;49.284;7.238;2024-01-06T05:12:38;5.18;;;3.53;;
16430;SDS011;8325;49.284;7.238;2024-01-06T05:16:50;5.43;;;3.22;;
16430;SDS011;8325;49.284;7.238;2024-01-06T05:21:02;6.88;;;3.20;;
16430;SDS011;8325;49.284;7.238;2024-01-06T05:25:14;5.38;;;3.28;;
16430;SDS011;8325;49.284;7.238;2024-01-06T05:29:26;7.57;;;3.60;;
16430;SDS011;8325;49.284;7.238;2024-01-06T05:33:38;4.55;;;3.40;;
16430;SDS011;8325;49.284;7.238;2024-01-06T05:37:49;7.47;;;3.78;;
16430;SDS011;8325;49.284;7.238;2024-01-06T05:42:01;6.68;;;3.65;;
16430;SDS011;8325;49.284;7.238;2024-01-06T05:46:19;5.28;;;3.38;;
16430;SDS011;8325;49.284;7.238;2024-01-06T05:50:35;4.72;;;3.65;;
16430;SDS011;8325;49.284;7.238;2024-01-06T05:54:46;8.23;;;3.88;;
16430;SDS011;8325;49.284;7.238;2024-01-06T05:58:58;6.35;;;3.38;;
16430;SDS011;8325;49.284;7.238;2024-01-06T06:03:09;5.35;;;3.42;;
16430;SDS011;8325;49.284;7.238;2024-01-06T06:07:21;5.00;;;3.55;;
16430;SDS011;8325;49.284;7.238;2024-01-06T06:11:33;6.70;;;4.07;;
16430;SDS011;8325;49.284;7.238;2024-01-06T06:15:45;6.05;;;4.35;;
16430;SDS011;8325;49.284;7.238;2024-01-06T06:19:57;5.63;;;4.30;;
16430;SDS011;8325;49.284;7.238;2024-01-06T06:24:09;5.22;;;3.70;;
16430;SDS011;8325;49.284;7.238;2024-01-06T06:28:21;5.75;;;3.75;;
16430;SDS011;8325;49.284;7.238;2024-01-06T06:32:32;11.38;;;4.80;;
16430;SDS011;8325;49.284;7.238;2024-01-06T06:36:44;14.15;;;6.82;;
16430;SDS011;8325;49.284;7.238;2024-01-06T06:40:57;14.07;;;6.78;;
16430;SDS011;8325;49.284;7.238;2024-01-06T06:45:09;17.60;;;8.73;;
16430;SDS011;8325;49.284;7.238;2024-01-06T06:49:23;10.45;;;6.90;;
16430;SDS011;8325;49.284;7.238;2024-01-06T06:53:34;5.90;;;4.60;;
16430;SDS011;8325;49.284;7.238;2024-01-06T06:57:46;8.35;;;4.40;;
16430;SDS011;8325;49.284;7.238;2024-01-06T07:01:57;7.05;;;4.70;;
16430;SDS011;8325;49.284;7.238;2024-01-06T07:06:12;7.10;;;4.65;;
16430;SDS011;8325;49.284;7.238;2024-01-06T07:10:25;6.32;;;4.75;;
16430;SDS011;8325;49.284;7.238;2024-01-06T07:14:37;7.85;;;4.80;;
16430;SDS011;8325;49.284;7.238;2024-01-06T07:18:48;6.03;;;4.40;;
16430;SDS011;8325;49.284;7.238;2024-01-06T07:23:00;7.00;;;4.53;;
16430;SDS011;8325;49.284;7.238;2024-01-06T07:27:14;6.32;;;4.30;;
16430;SDS011;8325;49.284;7.238;2024-01-06T07:31:26;8.13;;;5.15;;
16430;SDS011;8325;49.284;7.238;2024-01-06T07:35:38;9.10;;;4.35;;
16430;SDS011;8325;49.284;7.238;2024-01-06T07:39:53;8.63;;;5.03;;
16430;SDS011;8325;49.284;7.238;2024-01-06T07:44:05;7.15;;;4.95;;
16430;SDS011;8325;49.284;7.238;2024-01-06T07:48:17;6.95;;;4.47;;
16430;SDS011;8325;49.284;7.238;2024-01-06T07:52:28;6.85;;;4.57;;
16430;SDS011;8325;49.284;7.238;2024-01-06T07:56:40;8.25;;;5.10;;
16430;SDS011;8325;49.284;7.238;2024-01-06T08:00:53;7.68;;;5.22;;
16430;SDS011;8325;49.284;7.238;2024-01-06T08:05:05;10.02;;;5.20;;
16430;SDS011;8325;49.284;7.238;2024-01-06T08:09:18;10.35;;;5.75;;
16430;SDS011;8325;49.284;7.238;2024-01-06T08:13:29;7.80;;;5.40;;
16430;SDS011;8325;49.284;7.238;2024-01-06T08:17:41;8.48;;;5.35;;
16430;SDS011;8325;49.284;7.238;2024-01-06T08:21:54;9.27;;;5.88;;
16430;SDS011;8325;49.284;7.238;2024-01-06T08:26:05;7.70;;;5.18;;
16430;SDS011;8325;49.284;7.238;2024-01-06T08:30:21;10.32;;;5.65;;
16430;SDS011;8325;49.284;7.238;2024-01-06T08:34:35;8.48;;;6.07;;
16430;SDS011;8325;49.284;7.238;2024-01-06T08:38:47;8.40;;;6.13;;
16430;SDS011;8325;49.284;7.238;2024-01-06T08:42:58;12.48;;;7.15;;
16430;SDS011;8325;49.284;7.238;2024-01-06T08:47:10;8.70;;;5.68;;
16430;SDS011;8325;49.284;7.238;2024-01-06T08:51:23;9.82;;;6.57;;
16430;SDS011;8325;49.284;7.238;2024-01-06T08:55:35;9.32;;;5.32;;
16430;SDS011;8325;49.284;7.238;2024-01-06T08:59:47;7.13;;;5.10;;
16430;SDS011;8325;49.284;7.238;2024-01-06T09:03:58;7.03;;;5.00;;
16430;SDS011;8325;49.284;7.238;2024-01-06T09:08:10;8.65;;;5.63;;
16430;SDS011;8325;49.284;7.238;2024-01-06T09:12:22;8.82;;;5.80;;
16430;SDS011;8325;49.284;7.238;2024-01-06T09:16:34;8.00;;;6.35;;
16430;SDS011;8325;49.284;7.238;2024-01-06T09:20:45;9.43;;;6.60;;
16430;SDS011;8325;49.284;7.238;2024-01-06T09:25:00;7.22;;;5.55;;
16430;SDS011;8325;49.284;7.238;2024-01-06T09:29:12;8.93;;;5.75;;
16430;SDS011;8325;49.284;7.238;2024-01-06T09:33:23;16.88;;;10.90;;
16430;SDS011;8325;49.284;7.238;2024-01-06T09:37:35;14.65;;;9.35;;
16430;SDS011;8325;49.284;7.238;2024-01-06T09:41:47;12.20;;;7.68;;
16430;SDS011;8325;49.284;7.238;2024-01-06T09:46:05;8.25;;;5.38;;
16430;SDS011;8325;49.284;7.238;2024-01-06T09:50:21;6.75;;;4.90;;
16430;SDS011;8325;49.284;7.238;2024-01-06T09:54:33;6.65;;;4.28;;
16430;SDS011;8325;49.284;7.238;2024-01-06T09:58:48;5.53;;;4.13;;
16430;SDS011;8325;49.284;7.238;2024-01-06T10:03:00;6.35;;;4.38;;
16430;SDS011;8325;49.284;7.238;2024-01-06T10:07:11;9.15;;;5.30;;
16430;SDS011;8325;49.284;7.238;2024-01-06T10:11:25;7.72;;;4.85;;
16430;SDS011;8325;49.284;7.238;2024-01-06T10:15:37;6.85;;;4.80;;
16430;SDS011;8325;49.284;7.238;2024-01-06T10:19:49;7.88;;;5.10;;
16430;SDS011;8325;49.284;7.238;2024-01-06T10:24:01;5.70;;;4.22;;
16430;SDS011;8325;49.284;7.238;2024-01-06T10:28:12;7.55;;;4.40;;
16430;SDS011;8325;49.284;7.238;2024-01-06T10:32:25;8.20;;;4.95;;
16430;SDS011;8325;49.284;7.238;2024-01-06T10:36:40;9.77;;;5.95;;
16430;SDS011;8325;49.284;7.238;2024-01-06T10:41:04;9.85;;;6.10;;
16430;SDS011;8325;49.284;7.238;2024-01-06T10:45:19;7.93;;;4.38;;
16430;SDS011;8325;49.284;7.238;2024-01-06T10:49:32;6.95;;;4.28;;
16430;SDS011;8325;49.284;7.238;2024-01-06T10:53:45;7.53;;;4.35;;
16430;SDS011;8325;49.284;7.238;2024-01-06T10:57:56;4.63;;;3.65;;
16430;SDS011;8325;49.284;7.238;2024-01-06T11:02:10;5.25;;;4.03;;
16430;SDS011;8325;49.284;7.238;2024-01-06T11:06:23;5.20;;;4.00;;
16430;SDS011;8325;49.284;7.238;2024-01-06T11:10:36;6.40;;;3.92;;
16430;SDS011;8325;49.284;7.238;2024-01-06T11:14:50;7.05;;;4.18;;
16430;SDS011;8325;49.284;7.238;2024-01-06T11:19:01;6.05;;;4.50;;
16430;SDS011;8325;49.284;7.238;2024-01-06T11:23:17;6.32;;;4.05;;
16430;SDS011;8325;49.284;7.238;2024-01-06T11:27:33;5.57;;;4.10;;
16430;SDS011;8325;49.284;7.238;2024-01-06T11:36:48;6.75;;;3.53;;
16430;SDS011;8325;49.284;7.238;2024-01-06T11:40:59;6.55;;;4.07;;
16430;SDS011;8325;49.284;7.238;2024-01-06T11:45:12;6.85;;;3.50;;
16430;SDS011;8325;49.284;7.238;2024-01-06T11:49:27;3.78;;;3.25;;
16430;SDS011;8325;49.284;7.238;2024-01-06T11:53:39;3.33;;;2.75;;
16430;SDS011;8325;49.284;7.238;2024-01-06T11:57:52;4.78;;;2.60;;
16430;SDS011;8325;49.284;7.238;2024-01-06T12:02:04;4.05;;;2.70;;
16430;SDS011;8325;49.284;7.238;2024-01-06T12:06:19;5.40;;;4.10;;
16430;SDS011;8325;49.284;7.238;2024-01-06T12:10:32;5.43;;;4.15;;
16430;SDS011;8325;49.284;7.238;2024-01-06T12:14:44;4.60;;;2.90;;
16430;SDS011;8325;49.284;7.238;2024-01-06T12:18:59;3.17;;;2.50;;
16430;SDS011;8325;49.284;7.238;2024-01-06T12:23:12;3.85;;;2.67;;
16430;SDS011;8325;49.284;7.238;2024-01-06T12:27:24;3.28;;;2.53;;
16430;SDS011;8325;49.284;7.238;2024-01-06T12:31:36;3.15;;;2.47;;
16430;SDS011;8325;49.284;7.238;2024-01-06T12:35:50;2.67;;;2.20;;
16430;SDS011;8325;49.284;7.238;2024-01-06T12:40:02;3.72;;;2.63;;
16430;SDS011;8325;49.284;7.238;2024-01-06T12:44:14;3.42;;;2.45;;
16430;SDS011;8325;49.284;7.238;2024-01-06T12:48:25;4.57;;;2.95;;
16430;SDS011;8325;49.284;7.238;2024-01-06T12:52:37;3.47;;;2.90;;
16430;SDS011;8325;49.284;7.238;2024-01-06T12:56:50;3.80;;;2.95;;
16430;SDS011;8325;49.284;7.238;2024-01-06T13:01:02;4.38;;;2.78;;
16430;SDS011;8325;49.284;7.238;2024-01-06T13:05:14;4.55;;;3.33;;
16430;SDS011;8325;49.284;7.238;2024-01-06T13:09:26;3.40;;;3.10;;
16430;SDS011;8325;49.284;7.238;2024-01-06T13:13:38;4.45;;;3.85;;
16430;SDS011;8325;49.284;7.238;2024-01-06T13:17:50;5.60;;;5.00;;
16430;SDS011;8325;49.284;7.238;2024-01-06T13:22:03;6.20;;;3.55;;
16430;SDS011;8325;49.284;7.238;2024-01-06T13:26:14;5.22;;;3.35;;
16430;SDS011;8325;49.284;7.238;2024-01-06T13:30:26;5.05;;;4.40;;
16430;SDS011;8325;49.284;7.238;2024-01-06T13:34:38;3.00;;;2.00;;
16430;SDS011;8325;49.284;7.238;2024-01-06T13:38:50;2.72;;;2.00;;
16430;SDS011;8325;49.284;7.238;2024-01-06T13:43:02;2.95;;;2.30;;
16430;SDS011;8325;49.284;7.238;2024-01-06T13:47:16;3.88;;;2.72;;
16430;SDS011;8325;49.284;7.238;2024-01-06T13:51:27;3.22;;;2.35;;
16430;SDS011;8325;49.284;7.238;2024-01-06T13:55:40;4.57;;;1.88;;
16430;SDS011;8325;49.284;7.238;2024-01-06T13:59:51;2.60;;;2.38;;
16430;SDS011;8325;49.284;7.238;2024-01-06T14:04:03;3.75;;;3.03;;
16430;SDS011;8325;49.284;7.238;2024-01-06T14:08:16;2.50;;;1.92;;
16430;SDS011;8325;49.284;7.238;2024-01-06T14:12:28;2.42;;;1.90;;
16430;SDS011;8325;49.284;7.238;2024-01-06T14:16:40;2.75;;;2.05;;
16430;SDS011;8325;49.284;7.238;2024-01-06T14:20:54;4.10;;;2.30;;
16430;SDS011;8325;49.284;7.238;2024-01-06T14:25:07;2.92;;;2.28;;
16430;SDS011;8325;49.284;7.238;2024-01-06T14:29:19;4.55;;;2.30;;
16430;SDS011;8325;49.284;7.238;2024-01-06T14:33:31;3.17;;;2.80;;
16430;SDS011;8325;49.284;7.238;2024-01-06T14:37:42;2.63;;;2.25;;
16430;SDS011;8325;49.284;7.238;2024-01-06T14:41:55;4.43;;;2.78;;
16430;SDS011;8325;49.284;7.238;2024-01-06T14:46:07;4.95;;;3.60;;
16430;SDS011;8325;49.284;7.238;2024-01-06T14:50:19;3.35;;;2.92;;
16430;SDS011;8325;49.284;7.238;2024-01-06T14:54:30;3.67;;;3.05;;
16430;SDS011;8325;49.284;7.238;2024-01-06T14:58:44;1.75;;;1.60;;
16430;SDS011;8325;49.284;7.238;2024-01-06T15:02:56;1.90;;;1.63;;
16430;SDS011;8325;49.284;7.238;2024-01-06T15:07:08;3.08;;;2.78;;
16430;SDS011;8325;49.284;7.238;2024-01-06T15:11:20;3.35;;;2.83;;
16430;SDS011;8325;49.284;7.238;2024-01-06T15:15:31;2.90;;;2.30;;
16430;SDS011;8325;49.284;7.238;2024-01-06T15:19:44;2.55;;;2.10;;
16430;SDS011;8325;49.284;7.238;2024-01-06T15:23:57;2.78;;;2.30;;
16430;SDS011;8325;49.284;7.238;2024-01-06T15:28:09;3.42;;;3.00;;
16430;SDS011;8325;49.284;7.238;2024-01-06T15:32:20;3.55;;;2.53;;
16430;SDS011;8325;49.284;7.238;2024-01-06T15:36:32;4.65;;;3.05;;
16430;SDS011;8325;49.284;7.238;2024-01-06T15:40:44;6.20;;;4.90;;
16430;SDS011;8325;49.284;7.238;2024-01-06T15:44:55;6.63;;;4.88;;
16430;SDS011;8325;49.284;7.238;2024-01-06T15:49:07;5.00;;;3.95;;
16430;SDS011;8325;49.284;7.238;2024-01-06T15:53:19;6.25;;;3.72;;
16430;SDS011;8325;49.284;7.238;2024-01-06T15:57:31;5.05;;;3.40;;
16430;SDS011;8325;49.284;7.238;2024-01-06T16:01:44;6.30;;;5.05;;
16430;SDS011;8325;49.284;7.238;2024-01-06T16:05:56;5.30;;;4.13;;
16430;SDS011;8325;49.284;7.238;2024-01-06T16:10:07;5.10;;;3.70;;
16430;SDS011;8325;49.284;7.238;2024-01-06T16:14:19;5.00;;;3.60;;
16430;SDS011;8325;49.284;7.238;2024-01-06T16:18:31;4.97;;;3.83;;
16430;SDS011;8325;49.284;7.238;2024-01-06T16:22:43;4.35;;;3.42;;
16430;SDS011;8325;49.284;7.238;2024-01-06T16:26:57;5.22;;;3.45;;
16430;SDS011;8325;49.284;7.238;2024-01-06T16:31:09;4.95;;;3.63;;
16430;SDS011;8325;49.284;7.238;2024-01-06T16:35:20;5.75;;;3.80;;
16430;SDS011;8325;49.284;7.238;2024-01-06T16:39:32;6.35;;;4.68;;
16430;SDS011;8325;49.284;7.238;2024-01-06T16:43:44;5.72;;;4.45;;
16430;SDS011;8325;49.284;7.238;2024-01-06T16:47:55;5.57;;;4.00;;
16430;SDS011;8325;49.284;7.238;2024-01-06T16:52:07;6.80;;;4.60;;
16430;SDS011;8325;49.284;7.238;2024-01-06T16:56:19;8.45;;;5.28;;
16430;SDS011;8325;49.284;7.238;2024-01-06T17:00:30;6.85;;;4.55;;
16430;SDS011;8325;49.284;7.238;2024-01-06T17:04:42;5.35;;;4.40;;
16430;SDS011;8325;49.284;7.238;2024-01-06T17:08:54;6.30;;;4.40;;
16430;SDS011;8325;49.284;7.238;2024-01-06T17:13:06;5.88;;;4.30;;
16430;SDS011;8325;49.284;7.238;2024-01-06T17:17:18;6.50;;;3.60;;
16430;SDS011;8325;49.284;7.238;2024-01-06T17:21:29;5.00;;;3.50;;
16430;SDS011;8325;49.284;7.238;2024-01-06T17:25:41;5.43;;;4.47;;
16430;SDS011;8325;49.284;7.238;2024-01-06T17:29:53;4.97;;;3.75;;
16430;SDS011;8325;49.284;7.238;2024-01-06T17:34:04;4.75;;;3.88;;
16430;SDS011;8325;49.284;7.238;2024-01-06T17:38:16;4.30;;;3.30;;
16430;SDS011;8325;49.284;7.238;2024-01-06T17:42:28;5.22;;;4.43;;
16430;SDS011;8325;49.284;7.238;2024-01-06T17:46:39;5.00;;;4.00;;
16430;SDS011;8325;49.284;7.238;2024-01-06T17:50:51;5.50;;;3.83;;
16430;SDS011;8325;49.284;7.238;2024-01-06T17:55:03;4.75;;;3.47;;
16430;SDS011;8325;49.284;7.238;2024-01-06T17:59:15;5.55;;;3.97;;
16430;SDS011;8325;49.284;7.238;2024-01-06T18:03:26;4.13;;;3.35;;
16430;SDS011;8325;49.284;7.238;2024-01-06T18:07:38;4.38;;;3.47;;
16430;SDS011;8325;49.284;7.238;2024-01-06T18:11:50;5.03;;;3.50;;
16430;SDS011;8325;49.284;7.238;2024-01-06T18:16:02;5.10;;;3.70;;
16430;SDS011;8325;49.284;7.238;2024-01-06T18:20:14;4.00;;;3.35;;
16430;SDS011;8325;49.284;7.238;2024-01-06T18:24:25;4.55;;;3.45;;
16430;SDS011;8325;49.284;7.238;2024-01-06T18:28:37;5.13;;;3.53;;
16430;SDS011;8325;49.284;7.238;2024-01-06T18:32:49;4.75;;;3.63;;
16430;SDS011;8325;49.284;7.238;2024-01-06T18:37:02;4.15;;;2.92;;
16430;SDS011;8325;49.284;7.238;2024-01-06T18:41:14;4.35;;;2.97;;
16430;SDS011;8325;49.284;7.238;2024-01-06T18:45:25;3.95;;;3.03;;
16430;SDS011;8325;49.284;7.238;2024-01-06T18:49:37;3.97;;;2.95;;
16430;SDS011;8325;49.284;7.238;2024-01-06T18:53:49;4.18;;;3.10;;
16430;SDS011;8325;49.284;7.238;2024-01-06T18:58:01;4.30;;;3.90;;
16430;SDS011;8325;49.284;7.238;2024-01-06T19:02:13;3.30;;;2.75;;
16430;SDS011;8325;49.284;7.238;2024-01-06T19:06:24;4.03;;;3.05;;
16430;SDS011;8325;49.284;7.238;2024-01-06T19:10:36;6.20;;;4.13;;
16430;SDS011;8325;49.284;7.238;2024-01-06T19:14:48;5.88;;;4.32;;
16430;SDS011;8325;49.284;7.238;2024-01-06T19:19:00;5.93;;;3.88;;
16430;SDS011;8325;49.284;7.238;2024-01-06T19:23:12;8.10;;;6.32;;
16430;SDS011;8325;49.284;7.238;2024-01-06T19:27:24;8.25;;;5.50;;
16430;SDS011;8325;49.284;7.238;2024-01-06T19:31:35;9.65;;;4.65;;
16430;SDS011;8325;49.284;7.238;2024-01-06T19:35:47;6.53;;;3.85;;
16430;SDS011;8325;49.284;7.238;2024-01-06T19:39:59;4.88;;;3.90;;
16430;SDS011;8325;49.284;7.238;2024-01-06T19:44:11;7.38;;;4.75;;
16430;SDS011;8325;49.284;7.238;2024-01-06T19:48:22;7.43;;;4.63;;
16430;SDS011;8325;49.284;7.238;2024-01-06T19:52:34;7.70;;;4.47;;
16430;SDS011;8325;49.284;7.238;2024-01-06T19:56:46;6.57;;;4.72;;
16430;SDS011;8325;49.284;7.238;2024-01-06T20:00:58;7.30;;;4.63;;
16430;SDS011;8325;49.284;7.238;2024-01-06T20:05:10;8.48;;;5.40;;
16430;SDS011;8325;49.284;7.238;2024-01-06T20:09:21;7.65;;;5.07;;
16430;SDS011;8325;49.284;7.238;2024-01-06T20:13:33;8.05;;;5.20;;
16430;SDS011;8325;49.284;7.238;2024-01-06T20:17:45;9.48;;;5.35;;
16430;SDS011;8325;49.284;7.238;2024-01-06T20:21:57;10.68;;;4.60;;
16430;SDS011;8325;49.284;7.238;2024-01-06T20:26:09;8.43;;;5.60;;
16430;SDS011;8325;49.284;7.238;2024-01-06T20:30:20;14.18;;;6.88;;
16430;SDS011;8325;49.284;7.238;2024-01-06T20:34:32;15.57;;;8.23;;
16430;SDS011;8325;49.284;7.238;2024-01-06T20:38:44;11.75;;;6.72;;
16430;SDS011;8325;49.284;7.238;2024-01-06T20:42:58;10.82;;;6.18;;
16430;SDS011;8325;49.284;7.238;2024-01-06T20:47:10;7.47;;;4.95;;
16430;SDS011;8325;49.284;7.238;2024-01-06T20:51:21;7.88;;;5.15;;
16430;SDS011;8325;49.284;7.238;2024-01-06T20:55:33;7.88;;;5.10;;
16430;SDS011;8325;49.284;7.238;2024-01-06T20:59:44;7.38;;;4.57;;
16430;SDS011;8325;49.284;7.238;2024-01-06T21:03:56;6.60;;;4.07;;
16430;SDS011;8325;49.284;7.238;2024-01-06T21:08:08;7.35;;;5.10;;
16430;SDS011;8325;49.284;7.238;2024-01-06T21:12:19;8.55;;;5.32;;
16430;SDS011;8325;49.284;7.238;2024-01-06T21:16:31;8.13;;;5.35;;
16430;SDS011;8325;49.284;7.238;2024-01-06T21:20:43;8.65;;;6.03;;
16430;SDS011;8325;49.284;7.238;2024-01-06T21:24:55;8.80;;;5.93;;
16430;SDS011;8325;49.284;7.238;2024-01-06T21:29:08;8.50;;;5.13;;
16430;SDS011;8325;49.284;7.238;2024-01-06T21:33:21;8.38;;;4.70;;
16430;SDS011;8325;49.284;7.238;2024-01-06T21:37:33;8.40;;;5.07;;
16430;SDS011;8325;49.284;7.238;2024-01-06T21:41:44;8.15;;;5.63;;
16430;SDS011;8325;49.284;7.238;2024-01-06T21:45:57;12.20;;;7.07;;
16430;SDS011;8325;49.284;7.238;2024-01-06T21:50:09;12.52;;;8.00;;
16430;SDS011;8325;49.284;7.238;2024-01-06T21:54:22;10.88;;;7.25;;
16430;SDS011;8325;49.284;7.238;2024-01-06T21:58:33;9.25;;;5.70;;
16430;SDS011;8325;49.284;7.238;2024-01-06T22:02:47;7.75;;;5.18;;
16430;SDS011;8325;49.284;7.238;2024-01-06T22:07:01;8.65;;;5.43;;
16430;SDS011;8325;49.284;7.238;2024-01-06T22:11:13;7.97;;;5.10;;
16430;SDS011;8325;49.284;7.238;2024-01-06T22:15:24;9.45;;;5.63;;
16430;SDS011;8325;49.284;7.238;2024-01-06T22:19:36;10.02;;;4.97;;
16430;SDS011;8325;49.284;7.238;2024-01-06T22:23:50;8.40;;;4.35;;
16430;SDS011;8325;49.284;7.238;2024-01-06T22:28:02;6.72;;;4.35;;
